Crater Lake National Park, OR

2:52 AM PDT on July 31, 2016 (GMT -0700)
Chiloquin Williamson River | | Change Station
Active Advisory: Fire Weather Watch

Elev 4173 ft 42.58 °N, 121.86 °W | Updated 5 seconds ago

Clear
Clear
47.3 °F
Feels Like 45 °F
N
4.5
Wind Variable Wind from ENE
Gusts 4.9 mph

Today
High -- | Low -- °F
--% Chance of Precip.
Yesterday
High -- | Low -- °F
Precip. -- in
Pressure 29.85 in
Visibility 10.0 miles
Clouds Clear
Windchill 45 °F
Dew Point 44 °F
Humidity 88%
Rainfall 0.00 in
Snow Depth Not available.
5:59 AM 8:27 PM
Waning Crescent, 7% visible
METAR KLMT 310853Z AUTO 00000KT 10SM CLR 14/08 A3000 RMK AO2 SLP108 T01390078 50002
Pressure 29.85 in
Visibility 10.0 miles
Clouds Clear
Windchill 45 °F
Dew Point 44 °F
Humidity 88%
Rainfall 0.00 in
Snow Depth Not available.
5:59 AM 8:27 PM
Waning Crescent, 7% visible
METAR KLMT 310853Z AUTO 00000KT 10SM CLR 14/08 A3000 RMK AO2 SLP108 T01390078 50002

10-Day Weather Forecast

Almanac

Astronomy

Jul. 31, 2016 Rise Set
Actual Time
Civil Twilight
Nautical Twilight
Astronomical Twilight
Moon
Length of Visible Light
Length of Day
Tomorrow will be .
, % of the Moon is Illuminated

Today's Extremes

State Highs State Lows

Community

WunderPhotos

Upload Photos

1,928,776 photos uploaded!

WunderBlog® & News

Nearby

Air Quality

  Air Quality AQ Index Pollutant
Not available.

Snow Depth

Station Depth Elevation

Earthquake Activity

City Distance Mag. Time & Date
Minimum magnitude displayed is 2.5.

Coastal Water Temperatures

Place Temperature

Stations

Nearby Weather Stations

Station Location Temp. Windchill Dew Point Humidity Wind Precip. Elev Updated Type
                   

Watches & Warnings

Fire Weather Watch
Issued: 4:26 PM PDT Jul. 30, 2016 – National Weather Service

... Fire Weather Watch cancelled for Sunday afternoon and evening
for fire weather zone 624...

... Fire Weather Watch remains in effect from Monday afternoon
through Monday evening for gusty winds with low humidities for
fire weather zone 624...

The National Weather Service in Medford has cancelled the Fire
Weather Watch for Sunday afternoon and evening. The Fire Weather
Watch remains in effect for Monday afternoon and evening for
gusty winds and and low humidities.

* Impacts: very low relative humidities and strong, gusty winds
Monday afternoon and evening will result in the potential for
rapid fire spread.

* Affected area: in south central or... southeastern portion of fire
weather zone 624.

* Wind: southwest 15 to 20 mph with gusts up to 30 mph.

* Minimum relative humidity: 7 to 15 percent.

* Haines index: 5 (moderate).

Precautionary/preparedness actions...

* a Fire Weather Watch means that critical fire weather
conditions are forecast to occur.

* Listen for latest forecasts and possible red flag warnings.

* One less spark, one less wildfire.

A Fire Weather Watch means that critical fire weather conditions
are forecast to occur. Listen for later forecasts and possible red
flag warnings.